sensor_id;sensor_type;location;lat;lon;timestamp;P1;durP1;ratioP1;P2;durP2;ratioP2
58069;SDS011;43863;52.256;21.048;2022-10-16T00:01:27;64.65;;;31.08;;
58069;SDS011;43863;52.256;21.048;2022-10-16T00:03:59;72.82;;;32.10;;
58069;SDS011;43863;52.256;21.048;2022-10-16T00:06:28;69.53;;;30.27;;
58069;SDS011;43863;52.256;21.048;2022-10-16T00:08:58;68.25;;;31.15;;
58069;SDS011;43863;52.256;21.048;2022-10-16T00:11:27;61.90;;;28.73;;
58069;SDS011;43863;52.256;21.048;2022-10-16T00:13:58;66.15;;;31.88;;
58069;SDS011;43863;52.256;21.048;2022-10-16T00:16:27;66.38;;;32.03;;
58069;SDS011;43863;52.256;21.048;2022-10-16T00:18:56;63.72;;;30.02;;
58069;SDS011;43863;52.256;21.048;2022-10-16T00:21:27;61.97;;;31.52;;
58069;SDS011;43863;52.256;21.048;2022-10-16T00:24:14;63.30;;;29.48;;
58069;SDS011;43863;52.256;21.048;2022-10-16T00:26:44;65.38;;;29.67;;
58069;SDS011;43863;52.256;21.048;2022-10-16T00:29:12;66.07;;;31.35;;
58069;SDS011;43863;52.256;21.048;2022-10-16T00:31:40;66.30;;;29.88;;
58069;SDS011;43863;52.256;21.048;2022-10-16T00:34:08;61.40;;;29.55;;
58069;SDS011;43863;52.256;21.048;2022-10-16T00:36:36;62.70;;;30.70;;
58069;SDS011;43863;52.256;21.048;2022-10-16T00:39:04;65.85;;;30.67;;
58069;SDS011;43863;52.256;21.048;2022-10-16T00:41:32;62.47;;;29.85;;
58069;SDS011;43863;52.256;21.048;2022-10-16T00:44:02;71.05;;;31.70;;
58069;SDS011;43863;52.256;21.048;2022-10-16T00:46:54;61.50;;;30.65;;
58069;SDS011;43863;52.256;21.048;2022-10-16T00:49:22;71.63;;;33.67;;
58069;SDS011;43863;52.256;21.048;2022-10-16T00:51:50;75.43;;;34.05;;
58069;SDS011;43863;52.256;21.048;2022-10-16T00:54:28;73.18;;;33.63;;
58069;SDS011;43863;52.256;21.048;2022-10-16T00:57:01;73.47;;;33.80;;
58069;SDS011;43863;52.256;21.048;2022-10-16T00:59:33;79.20;;;34.17;;
58069;SDS011;43863;52.256;21.048;2022-10-16T01:02:05;75.28;;;35.00;;
58069;SDS011;43863;52.256;21.048;2022-10-16T01:04:35;81.53;;;36.10;;
58069;SDS011;43863;52.256;21.048;2022-10-16T01:07:11;85.78;;;38.20;;
58069;SDS011;43863;52.256;21.048;2022-10-16T01:12:40;77.05;;;37.30;;
58069;SDS011;43863;52.256;21.048;2022-10-16T01:15:17;80.10;;;35.85;;
58069;SDS011;43863;52.256;21.048;2022-10-16T01:20:56;76.38;;;36.33;;
58069;SDS011;43863;52.256;21.048;2022-10-16T01:23:48;80.32;;;37.92;;
58069;SDS011;43863;52.256;21.048;2022-10-16T01:29:18;77.32;;;37.58;;
58069;SDS011;43863;52.256;21.048;2022-10-16T01:31:54;77.88;;;37.00;;
58069;SDS011;43863;52.256;21.048;2022-10-16T01:34:37;77.18;;;38.30;;
58069;SDS011;43863;52.256;21.048;2022-10-16T01:37:13;78.30;;;38.05;;
58069;SDS011;43863;52.256;21.048;2022-10-16T01:39:46;80.70;;;37.28;;
58069;SDS011;43863;52.256;21.048;2022-10-16T01:42:21;76.65;;;36.60;;
58069;SDS011;43863;52.256;21.048;2022-10-16T01:44:56;83.30;;;37.85;;
58069;SDS011;43863;52.256;21.048;2022-10-16T01:47:26;76.97;;;36.97;;
58069;SDS011;43863;52.256;21.048;2022-10-16T01:49:57;76.35;;;36.90;;
58069;SDS011;43863;52.256;21.048;2022-10-16T01:52:27;79.20;;;38.05;;
58069;SDS011;43863;52.256;21.048;2022-10-16T01:54:57;76.65;;;36.70;;
58069;SDS011;43863;52.256;21.048;2022-10-16T01:59:58;77.05;;;38.42;;
58069;SDS011;43863;52.256;21.048;2022-10-16T02:02:38;77.38;;;38.15;;
58069;SDS011;43863;52.256;21.048;2022-10-16T02:05:12;75.38;;;37.08;;
58069;SDS011;43863;52.256;21.048;2022-10-16T02:07:47;79.25;;;37.95;;
58069;SDS011;43863;52.256;21.048;2022-10-16T02:13:10;82.35;;;39.33;;
58069;SDS011;43863;52.256;21.048;2022-10-16T02:15:44;80.13;;;39.13;;
58069;SDS011;43863;52.256;21.048;2022-10-16T02:18:12;84.13;;;41.58;;
58069;SDS011;43863;52.256;21.048;2022-10-16T02:20:59;78.32;;;38.67;;
58069;SDS011;43863;52.256;21.048;2022-10-16T02:23:45;75.82;;;38.05;;
58069;SDS011;43863;52.256;21.048;2022-10-16T02:26:29;88.93;;;41.10;;
58069;SDS011;43863;52.256;21.048;2022-10-16T02:29:05;84.10;;;39.75;;
58069;SDS011;43863;52.256;21.048;2022-10-16T02:31:39;84.25;;;39.30;;
58069;SDS011;43863;52.256;21.048;2022-10-16T02:34:10;83.38;;;39.28;;
58069;SDS011;43863;52.256;21.048;2022-10-16T02:36:40;82.93;;;40.38;;
58069;SDS011;43863;52.256;21.048;2022-10-16T02:39:10;90.57;;;41.75;;
58069;SDS011;43863;52.256;21.048;2022-10-16T02:41:39;90.20;;;42.20;;
58069;SDS011;43863;52.256;21.048;2022-10-16T02:44:07;82.63;;;40.72;;
58069;SDS011;43863;52.256;21.048;2022-10-16T02:46:34;94.22;;;42.03;;
58069;SDS011;43863;52.256;21.048;2022-10-16T02:49:02;92.15;;;42.38;;
58069;SDS011;43863;52.256;21.048;2022-10-16T02:51:30;89.40;;;43.25;;
58069;SDS011;43863;52.256;21.048;2022-10-16T02:53:59;92.25;;;44.33;;
58069;SDS011;43863;52.256;21.048;2022-10-16T02:56:27;97.07;;;44.50;;
58069;SDS011;43863;52.256;21.048;2022-10-16T02:58:55;98.22;;;46.58;;
58069;SDS011;43863;52.256;21.048;2022-10-16T03:01:25;96.32;;;45.90;;
58069;SDS011;43863;52.256;21.048;2022-10-16T03:03:53;94.00;;;44.25;;
58069;SDS011;43863;52.256;21.048;2022-10-16T03:09:39;101.88;;;46.35;;
58069;SDS011;43863;52.256;21.048;2022-10-16T03:12:07;97.18;;;43.83;;
58069;SDS011;43863;52.256;21.048;2022-10-16T03:14:35;100.20;;;45.55;;
58069;SDS011;43863;52.256;21.048;2022-10-16T03:17:03;97.47;;;45.58;;
58069;SDS011;43863;52.256;21.048;2022-10-16T03:19:31;106.45;;;45.17;;
58069;SDS011;43863;52.256;21.048;2022-10-16T03:21:59;100.45;;;44.25;;
58069;SDS011;43863;52.256;21.048;2022-10-16T03:24:26;88.20;;;44.97;;
58069;SDS011;43863;52.256;21.048;2022-10-16T03:26:54;94.40;;;45.85;;
58069;SDS011;43863;52.256;21.048;2022-10-16T03:29:23;92.13;;;43.72;;
58069;SDS011;43863;52.256;21.048;2022-10-16T03:31:53;92.60;;;43.92;;
58069;SDS011;43863;52.256;21.048;2022-10-16T03:34:21;99.80;;;44.40;;
58069;SDS011;43863;52.256;21.048;2022-10-16T03:36:49;94.20;;;46.05;;
58069;SDS011;43863;52.256;21.048;2022-10-16T03:39:16;94.88;;;44.03;;
58069;SDS011;43863;52.256;21.048;2022-10-16T03:41:44;96.53;;;46.50;;
58069;SDS011;43863;52.256;21.048;2022-10-16T03:44:13;95.05;;;45.25;;
58069;SDS011;43863;52.256;21.048;2022-10-16T03:46:42;98.25;;;47.53;;
58069;SDS011;43863;52.256;21.048;2022-10-16T03:49:09;89.32;;;42.55;;
58069;SDS011;43863;52.256;21.048;2022-10-16T03:51:37;97.90;;;44.80;;
58069;SDS011;43863;52.256;21.048;2022-10-16T03:54:05;98.13;;;44.83;;
58069;SDS011;43863;52.256;21.048;2022-10-16T03:56:33;92.70;;;44.25;;
58069;SDS011;43863;52.256;21.048;2022-10-16T03:59:01;91.57;;;44.00;;
58069;SDS011;43863;52.256;21.048;2022-10-16T04:01:29;96.28;;;44.45;;
58069;SDS011;43863;52.256;21.048;2022-10-16T04:03:56;89.43;;;44.08;;
58069;SDS011;43863;52.256;21.048;2022-10-16T04:06:24;83.63;;;41.28;;
58069;SDS011;43863;52.256;21.048;2022-10-16T04:08:52;85.90;;;42.78;;
58069;SDS011;43863;52.256;21.048;2022-10-16T04:11:20;90.82;;;43.45;;
58069;SDS011;43863;52.256;21.048;2022-10-16T04:13:48;102.20;;;43.72;;
58069;SDS011;43863;52.256;21.048;2022-10-16T04:16:15;94.07;;;45.13;;
58069;SDS011;43863;52.256;21.048;2022-10-16T04:18:43;85.75;;;43.03;;
58069;SDS011;43863;52.256;21.048;2022-10-16T04:21:11;97.70;;;44.33;;
58069;SDS011;43863;52.256;21.048;2022-10-16T04:23:39;89.63;;;43.80;;
58069;SDS011;43863;52.256;21.048;2022-10-16T04:26:06;91.93;;;44.05;;
58069;SDS011;43863;52.256;21.048;2022-10-16T04:28:34;94.80;;;42.03;;
58069;SDS011;43863;52.256;21.048;2022-10-16T04:31:03;90.28;;;43.25;;
58069;SDS011;43863;52.256;21.048;2022-10-16T04:33:35;95.85;;;43.83;;
58069;SDS011;43863;52.256;21.048;2022-10-16T04:36:04;87.57;;;42.58;;
58069;SDS011;43863;52.256;21.048;2022-10-16T04:38:33;86.85;;;43.10;;
58069;SDS011;43863;52.256;21.048;2022-10-16T04:41:01;88.70;;;43.65;;
58069;SDS011;43863;52.256;21.048;2022-10-16T04:43:32;83.72;;;44.10;;
58069;SDS011;43863;52.256;21.048;2022-10-16T04:46:01;91.78;;;44.10;;
58069;SDS011;43863;52.256;21.048;2022-10-16T04:48:29;81.65;;;40.58;;
58069;SDS011;43863;52.256;21.048;2022-10-16T04:50:57;90.28;;;42.10;;
58069;SDS011;43863;52.256;21.048;2022-10-16T04:53:25;93.68;;;44.70;;
58069;SDS011;43863;52.256;21.048;2022-10-16T04:55:53;82.85;;;42.72;;
58069;SDS011;43863;52.256;21.048;2022-10-16T04:58:22;92.30;;;41.92;;
58069;SDS011;43863;52.256;21.048;2022-10-16T05:00:50;85.25;;;43.42;;
58069;SDS011;43863;52.256;21.048;2022-10-16T05:03:18;87.22;;;41.38;;
58069;SDS011;43863;52.256;21.048;2022-10-16T05:05:46;85.60;;;41.90;;
58069;SDS011;43863;52.256;21.048;2022-10-16T05:08:16;95.95;;;41.22;;
58069;SDS011;43863;52.256;21.048;2022-10-16T05:10:44;83.85;;;42.78;;
58069;SDS011;43863;52.256;21.048;2022-10-16T05:13:13;88.22;;;42.50;;
58069;SDS011;43863;52.256;21.048;2022-10-16T05:15:41;86.70;;;41.88;;
58069;SDS011;43863;52.256;21.048;2022-10-16T05:18:09;83.63;;;40.75;;
58069;SDS011;43863;52.256;21.048;2022-10-16T05:20:37;85.43;;;40.83;;
58069;SDS011;43863;52.256;21.048;2022-10-16T05:23:04;79.03;;;41.60;;
58069;SDS011;43863;52.256;21.048;2022-10-16T05:25:32;77.20;;;39.17;;
58069;SDS011;43863;52.256;21.048;2022-10-16T05:28:00;85.20;;;42.42;;
58069;SDS011;43863;52.256;21.048;2022-10-16T05:30:28;82.20;;;39.83;;
58069;SDS011;43863;52.256;21.048;2022-10-16T05:32:55;86.07;;;40.10;;
58069;SDS011;43863;52.256;21.048;2022-10-16T05:35:23;82.07;;;39.72;;
58069;SDS011;43863;52.256;21.048;2022-10-16T05:37:51;77.30;;;39.90;;
58069;SDS011;43863;52.256;21.048;2022-10-16T05:40:20;75.75;;;37.50;;
58069;SDS011;43863;52.256;21.048;2022-10-16T05:42:47;72.25;;;36.17;;
58069;SDS011;43863;52.256;21.048;2022-10-16T05:45:15;88.97;;;42.40;;
58069;SDS011;43863;52.256;21.048;2022-10-16T05:47:43;72.70;;;37.75;;
58069;SDS011;43863;52.256;21.048;2022-10-16T05:50:11;78.50;;;39.10;;
58069;SDS011;43863;52.256;21.048;2022-10-16T05:52:39;77.30;;;37.92;;
58069;SDS011;43863;52.256;21.048;2022-10-16T05:55:07;88.47;;;38.40;;
58069;SDS011;43863;52.256;21.048;2022-10-16T05:57:35;77.30;;;39.22;;
58069;SDS011;43863;52.256;21.048;2022-10-16T06:00:03;84.25;;;39.75;;
58069;SDS011;43863;52.256;21.048;2022-10-16T06:02:38;79.60;;;38.42;;
58069;SDS011;43863;52.256;21.048;2022-10-16T06:05:06;90.68;;;46.30;;
58069;SDS011;43863;52.256;21.048;2022-10-16T06:07:34;77.18;;;38.35;;
58069;SDS011;43863;52.256;21.048;2022-10-16T06:10:03;74.93;;;38.10;;
58069;SDS011;43863;52.256;21.048;2022-10-16T06:12:32;75.13;;;38.65;;
58069;SDS011;43863;52.256;21.048;2022-10-16T06:15:00;73.55;;;36.90;;
58069;SDS011;43863;52.256;21.048;2022-10-16T06:17:27;73.00;;;37.13;;
58069;SDS011;43863;52.256;21.048;2022-10-16T06:19:55;77.95;;;37.65;;
58069;SDS011;43863;52.256;21.048;2022-10-16T06:22:23;72.97;;;35.85;;
58069;SDS011;43863;52.256;21.048;2022-10-16T06:24:51;78.78;;;38.20;;
58069;SDS011;43863;52.256;21.048;2022-10-16T06:27:19;79.80;;;40.42;;
58069;SDS011;43863;52.256;21.048;2022-10-16T06:29:46;76.00;;;36.72;;
58069;SDS011;43863;52.256;21.048;2022-10-16T06:32:14;74.85;;;36.40;;
58069;SDS011;43863;52.256;21.048;2022-10-16T06:34:45;74.00;;;37.13;;
58069;SDS011;43863;52.256;21.048;2022-10-16T06:37:13;71.63;;;36.00;;
58069;SDS011;43863;52.256;21.048;2022-10-16T06:39:41;66.70;;;35.60;;
58069;SDS011;43863;52.256;21.048;2022-10-16T06:42:08;72.55;;;35.45;;
58069;SDS011;43863;52.256;21.048;2022-10-16T06:44:36;77.22;;;37.13;;
58069;SDS011;43863;52.256;21.048;2022-10-16T06:47:04;77.95;;;37.15;;
58069;SDS011;43863;52.256;21.048;2022-10-16T06:49:32;72.93;;;36.95;;
58069;SDS011;43863;52.256;21.048;2022-10-16T06:51:59;69.85;;;36.85;;
58069;SDS011;43863;52.256;21.048;2022-10-16T06:54:28;60.47;;;33.65;;
58069;SDS011;43863;52.256;21.048;2022-10-16T06:57:05;72.75;;;37.47;;
58069;SDS011;43863;52.256;21.048;2022-10-16T06:59:33;65.10;;;34.28;;
58069;SDS011;43863;52.256;21.048;2022-10-16T07:02:01;67.63;;;34.30;;
58069;SDS011;43863;52.256;21.048;2022-10-16T07:04:29;68.47;;;35.15;;
58069;SDS011;43863;52.256;21.048;2022-10-16T07:06:57;68.25;;;34.47;;
58069;SDS011;43863;52.256;21.048;2022-10-16T07:09:30;64.72;;;34.67;;
58069;SDS011;43863;52.256;21.048;2022-10-16T07:11:58;67.60;;;33.08;;
58069;SDS011;43863;52.256;21.048;2022-10-16T07:14:26;71.40;;;33.88;;
58069;SDS011;43863;52.256;21.048;2022-10-16T07:16:55;71.97;;;35.28;;
58069;SDS011;43863;52.256;21.048;2022-10-16T07:19:22;65.30;;;31.88;;
58069;SDS011;43863;52.256;21.048;2022-10-16T07:21:50;70.95;;;33.65;;
58069;SDS011;43863;52.256;21.048;2022-10-16T07:24:18;63.08;;;32.33;;
58069;SDS011;43863;52.256;21.048;2022-10-16T07:26:46;64.68;;;32.78;;
58069;SDS011;43863;52.256;21.048;2022-10-16T07:29:18;63.17;;;32.75;;
58069;SDS011;43863;52.256;21.048;2022-10-16T07:31:47;74.43;;;35.92;;
58069;SDS011;43863;52.256;21.048;2022-10-16T07:34:17;85.00;;;39.13;;
58069;SDS011;43863;52.256;21.048;2022-10-16T07:36:49;67.22;;;33.15;;
58069;SDS011;43863;52.256;21.048;2022-10-16T07:39:18;65.68;;;33.03;;
58069;SDS011;43863;52.256;21.048;2022-10-16T07:41:46;62.05;;;33.30;;
58069;SDS011;43863;52.256;21.048;2022-10-16T07:44:15;65.07;;;32.45;;
58069;SDS011;43863;52.256;21.048;2022-10-16T07:46:42;74.72;;;34.88;;
58069;SDS011;43863;52.256;21.048;2022-10-16T07:49:11;70.13;;;33.72;;
58069;SDS011;43863;52.256;21.048;2022-10-16T07:51:38;66.70;;;31.42;;
58069;SDS011;43863;52.256;21.048;2022-10-16T07:54:07;71.28;;;32.50;;
58069;SDS011;43863;52.256;21.048;2022-10-16T07:56:36;63.27;;;33.97;;
58069;SDS011;43863;52.256;21.048;2022-10-16T07:59:10;61.28;;;31.75;;
58069;SDS011;43863;52.256;21.048;2022-10-16T08:01:38;62.78;;;32.45;;
58069;SDS011;43863;52.256;21.048;2022-10-16T08:04:06;69.20;;;32.80;;
58069;SDS011;43863;52.256;21.048;2022-10-16T08:06:35;81.68;;;39.33;;
58069;SDS011;43863;52.256;21.048;2022-10-16T08:09:05;65.65;;;32.40;;
58069;SDS011;43863;52.256;21.048;2022-10-16T08:11:34;60.40;;;31.52;;
58069;SDS011;43863;52.256;21.048;2022-10-16T08:14:02;62.28;;;33.10;;
58069;SDS011;43863;52.256;21.048;2022-10-16T08:16:30;58.42;;;30.33;;
58069;SDS011;43863;52.256;21.048;2022-10-16T08:18:58;60.85;;;31.60;;
58069;SDS011;43863;52.256;21.048;2022-10-16T08:21:26;60.83;;;30.95;;
58069;SDS011;43863;52.256;21.048;2022-10-16T08:23:53;64.47;;;31.27;;
58069;SDS011;43863;52.256;21.048;2022-10-16T08:26:25;62.38;;;31.08;;
58069;SDS011;43863;52.256;21.048;2022-10-16T08:28:54;55.95;;;29.80;;
58069;SDS011;43863;52.256;21.048;2022-10-16T08:31:23;61.50;;;31.52;;
58069;SDS011;43863;52.256;21.048;2022-10-16T08:33:52;61.58;;;31.92;;
58069;SDS011;43863;52.256;21.048;2022-10-16T08:36:20;62.58;;;31.40;;
58069;SDS011;43863;52.256;21.048;2022-10-16T08:38:49;58.58;;;31.55;;
58069;SDS011;43863;52.256;21.048;2022-10-16T08:41:40;61.47;;;30.88;;
58069;SDS011;43863;52.256;21.048;2022-10-16T08:49:35;58.80;;;30.13;;
58069;SDS011;43863;52.256;21.048;2022-10-16T08:52:10;54.78;;;29.77;;
58069;SDS011;43863;52.256;21.048;2022-10-16T08:54:45;61.80;;;29.33;;
58069;SDS011;43863;52.256;21.048;2022-10-16T08:57:22;59.15;;;30.55;;
58069;SDS011;43863;52.256;21.048;2022-10-16T08:59:52;63.45;;;30.15;;
58069;SDS011;43863;52.256;21.048;2022-10-16T09:02:31;61.92;;;29.45;;
58069;SDS011;43863;52.256;21.048;2022-10-16T09:05:18;58.08;;;27.88;;
58069;SDS011;43863;52.256;21.048;2022-10-16T09:13:29;57.63;;;28.92;;
58069;SDS011;43863;52.256;21.048;2022-10-16T09:21:21;62.13;;;28.70;;
58069;SDS011;43863;52.256;21.048;2022-10-16T09:23:51;76.57;;;34.88;;
58069;SDS011;43863;52.256;21.048;2022-10-16T09:26:19;58.40;;;29.88;;
58069;SDS011;43863;52.256;21.048;2022-10-16T09:28:51;76.20;;;33.88;;
58069;SDS011;43863;52.256;21.048;2022-10-16T09:31:21;57.63;;;27.95;;
58069;SDS011;43863;52.256;21.048;2022-10-16T09:33:59;61.35;;;28.55;;
58069;SDS011;43863;52.256;21.048;2022-10-16T09:36:36;55.30;;;27.60;;
58069;SDS011;43863;52.256;21.048;2022-10-16T09:39:10;53.50;;;26.63;;
58069;SDS011;43863;52.256;21.048;2022-10-16T09:41:42;66.60;;;31.00;;
58069;SDS011;43863;52.256;21.048;2022-10-16T09:52:23;53.45;;;25.75;;
58069;SDS011;43863;52.256;21.048;2022-10-16T09:54:52;48.60;;;24.70;;
58069;SDS011;43863;52.256;21.048;2022-10-16T09:57:24;46.95;;;25.80;;
58069;SDS011;43863;52.256;21.048;2022-10-16T09:59:53;56.28;;;27.98;;
58069;SDS011;43863;52.256;21.048;2022-10-16T10:02:26;52.70;;;26.55;;
58069;SDS011;43863;52.256;21.048;2022-10-16T10:04:58;47.80;;;25.63;;
58069;SDS011;43863;52.256;21.048;2022-10-16T10:10:41;56.80;;;28.88;;
58069;SDS011;43863;52.256;21.048;2022-10-16T10:13:19;50.45;;;27.13;;
58069;SDS011;43863;52.256;21.048;2022-10-16T10:15:50;52.78;;;26.33;;
58069;SDS011;43863;52.256;21.048;2022-10-16T10:18:19;53.95;;;26.25;;
58069;SDS011;43863;52.256;21.048;2022-10-16T10:20:59;50.60;;;25.85;;
58069;SDS011;43863;52.256;21.048;2022-10-16T10:23:29;49.58;;;27.45;;
58069;SDS011;43863;52.256;21.048;2022-10-16T10:31:38;50.55;;;24.98;;
58069;SDS011;43863;52.256;21.048;2022-10-16T10:34:33;52.00;;;26.50;;
58069;SDS011;43863;52.256;21.048;2022-10-16T10:39:57;55.53;;;25.60;;
58069;SDS011;43863;52.256;21.048;2022-10-16T10:45:28;49.45;;;26.15;;
58069;SDS011;43863;52.256;21.048;2022-10-16T10:50:55;51.00;;;25.10;;
58069;SDS011;43863;52.256;21.048;2022-10-16T11:07:09;45.50;;;24.23;;
58069;SDS011;43863;52.256;21.048;2022-10-16T11:09:41;49.70;;;25.75;;
58069;SDS011;43863;52.256;21.048;2022-10-16T11:12:19;58.80;;;25.65;;
58069;SDS011;43863;52.256;21.048;2022-10-16T11:15:11;47.50;;;23.75;;
58069;SDS011;43863;52.256;21.048;2022-10-16T11:20:54;52.08;;;25.48;;
58069;SDS011;43863;52.256;21.048;2022-10-16T11:26:14;44.75;;;23.70;;
58069;SDS011;43863;52.256;21.048;2022-10-16T11:28:56;48.38;;;22.90;;
58069;SDS011;43863;52.256;21.048;2022-10-16T11:31:28;48.88;;;24.73;;
58069;SDS011;43863;52.256;21.048;2022-10-16T11:34:09;50.97;;;24.23;;
58069;SDS011;43863;52.256;21.048;2022-10-16T11:36:47;48.42;;;23.98;;
58069;SDS011;43863;52.256;21.048;2022-10-16T11:39:35;50.88;;;24.20;;
58069;SDS011;43863;52.256;21.048;2022-10-16T11:42:10;40.55;;;21.85;;
58069;SDS011;43863;52.256;21.048;2022-10-16T11:47:43;45.58;;;23.27;;
58069;SDS011;43863;52.256;21.048;2022-10-16T11:50:39;37.35;;;20.50;;
58069;SDS011;43863;52.256;21.048;2022-10-16T11:53:35;46.67;;;22.65;;
58069;SDS011;43863;52.256;21.048;2022-10-16T11:56:06;44.47;;;22.40;;
58069;SDS011;43863;52.256;21.048;2022-10-16T12:07:14;39.10;;;21.05;;
58069;SDS011;43863;52.256;21.048;2022-10-16T12:09:46;46.97;;;23.33;;
58069;SDS011;43863;52.256;21.048;2022-10-16T12:12:28;45.47;;;22.42;;
58069;SDS011;43863;52.256;21.048;2022-10-16T12:15:23;48.33;;;23.02;;
58069;SDS011;43863;52.256;21.048;2022-10-16T12:18:51;44.25;;;22.67;;
58069;SDS011;43863;52.256;21.048;2022-10-16T12:21:11;44.03;;;21.52;;
58069;SDS011;43863;52.256;21.048;2022-10-16T12:23:47;49.00;;;23.23;;
58069;SDS011;43863;52.256;21.048;2022-10-16T12:26:33;44.28;;;22.90;;
58069;SDS011;43863;52.256;21.048;2022-10-16T12:29:28;43.20;;;22.50;;
58069;SDS011;43863;52.256;21.048;2022-10-16T12:32:02;51.70;;;23.17;;
58069;SDS011;43863;52.256;21.048;2022-10-16T12:37:18;43.03;;;22.27;;
58069;SDS011;43863;52.256;21.048;2022-10-16T12:40:22;54.17;;;25.30;;
58069;SDS011;43863;52.256;21.048;2022-10-16T12:42:54;49.50;;;23.75;;
58069;SDS011;43863;52.256;21.048;2022-10-16T12:48:17;41.80;;;21.95;;
58069;SDS011;43863;52.256;21.048;2022-10-16T12:51:11;43.85;;;22.70;;
58069;SDS011;43863;52.256;21.048;2022-10-16T12:54:03;51.40;;;23.42;;
58069;SDS011;43863;52.256;21.048;2022-10-16T13:10:53;46.58;;;25.30;;
58069;SDS011;43863;52.256;21.048;2022-10-16T13:21:37;50.08;;;25.05;;
58069;SDS011;43863;52.256;21.048;2022-10-16T13:27:56;51.17;;;24.88;;
58069;SDS011;43863;52.256;21.048;2022-10-16T13:31:12;65.63;;;28.73;;
58069;SDS011;43863;52.256;21.048;2022-10-16T13:36:05;61.75;;;27.33;;
58069;SDS011;43863;52.256;21.048;2022-10-16T13:38:39;51.25;;;24.35;;
58069;SDS011;43863;52.256;21.048;2022-10-16T13:41:16;62.50;;;28.73;;
58069;SDS011;43863;52.256;21.048;2022-10-16T13:43:47;55.38;;;27.08;;
58069;SDS011;43863;52.256;21.048;2022-10-16T13:46:21;47.63;;;23.77;;
58069;SDS011;43863;52.256;21.048;2022-10-16T13:48:58;49.03;;;23.67;;
58069;SDS011;43863;52.256;21.048;2022-10-16T13:51:58;49.17;;;22.75;;
58069;SDS011;43863;52.256;21.048;2022-10-16T13:54:27;38.97;;;20.58;;
58069;SDS011;43863;52.256;21.048;2022-10-16T13:59:52;42.20;;;21.98;;
58069;SDS011;43863;52.256;21.048;2022-10-16T14:04:51;43.20;;;19.88;;
58069;SDS011;43863;52.256;21.048;2022-10-16T14:07:29;40.97;;;19.88;;
58069;SDS011;43863;52.256;21.048;2022-10-16T14:10:05;34.78;;;19.95;;
58069;SDS011;43863;52.256;21.048;2022-10-16T14:12:57;41.65;;;21.10;;
58069;SDS011;43863;52.256;21.048;2022-10-16T14:15:35;40.80;;;21.42;;
58069;SDS011;43863;52.256;21.048;2022-10-16T14:18:06;45.15;;;21.05;;
58069;SDS011;43863;52.256;21.048;2022-10-16T14:20:44;43.25;;;21.25;;
58069;SDS011;43863;52.256;21.048;2022-10-16T14:23:23;45.63;;;21.13;;
58069;SDS011;43863;52.256;21.048;2022-10-16T14:26:11;43.67;;;20.42;;
58069;SDS011;43863;52.256;21.048;2022-10-16T14:28:43;43.70;;;22.25;;
58069;SDS011;43863;52.256;21.048;2022-10-16T14:33:56;62.65;;;32.97;;
58069;SDS011;43863;52.256;21.048;2022-10-16T14:36:28;42.22;;;21.55;;
58069;SDS011;43863;52.256;21.048;2022-10-16T14:39:06;45.67;;;21.27;;
58069;SDS011;43863;52.256;21.048;2022-10-16T14:41:54;42.00;;;20.65;;
58069;SDS011;43863;52.256;21.048;2022-10-16T14:44:32;48.03;;;23.45;;
58069;SDS011;43863;52.256;21.048;2022-10-16T14:47:08;42.28;;;20.65;;
58069;SDS011;43863;52.256;21.048;2022-10-16T14:49:47;51.78;;;25.95;;
58069;SDS011;43863;52.256;21.048;2022-10-16T14:52:17;44.80;;;22.83;;
58069;SDS011;43863;52.256;21.048;2022-10-16T14:54:47;59.88;;;29.02;;
58069;SDS011;43863;52.256;21.048;2022-10-16T14:57:21;49.53;;;23.52;;
58069;SDS011;43863;52.256;21.048;2022-10-16T14:59:54;47.58;;;21.42;;
58069;SDS011;43863;52.256;21.048;2022-10-16T15:04:58;50.15;;;22.63;;
58069;SDS011;43863;52.256;21.048;2022-10-16T15:07:43;51.50;;;25.55;;
58069;SDS011;43863;52.256;21.048;2022-10-16T15:10:11;43.88;;;21.58;;
58069;SDS011;43863;52.256;21.048;2022-10-16T15:12:40;41.83;;;22.02;;
58069;SDS011;43863;52.256;21.048;2022-10-16T15:17:52;47.67;;;21.40;;
58069;SDS011;43863;52.256;21.048;2022-10-16T15:20:24;48.28;;;22.95;;
58069;SDS011;43863;52.256;21.048;2022-10-16T15:22:52;45.20;;;22.20;;
58069;SDS011;43863;52.256;21.048;2022-10-16T15:28:01;48.70;;;23.67;;
58069;SDS011;43863;52.256;21.048;2022-10-16T15:30:30;45.67;;;22.52;;
58069;SDS011;43863;52.256;21.048;2022-10-16T15:32:58;48.97;;;23.90;;
58069;SDS011;43863;52.256;21.048;2022-10-16T15:35:29;54.25;;;26.05;;
58069;SDS011;43863;52.256;21.048;2022-10-16T15:38:13;50.00;;;25.45;;
58069;SDS011;43863;52.256;21.048;2022-10-16T15:40:43;47.95;;;23.65;;
58069;SDS011;43863;52.256;21.048;2022-10-16T15:43:11;49.38;;;24.02;;
58069;SDS011;43863;52.256;21.048;2022-10-16T15:45:39;48.15;;;25.95;;
58069;SDS011;43863;52.256;21.048;2022-10-16T15:48:11;53.42;;;24.17;;
58069;SDS011;43863;52.256;21.048;2022-10-16T15:50:41;48.72;;;24.63;;
58069;SDS011;43863;52.256;21.048;2022-10-16T15:53:10;45.55;;;23.48;;
58069;SDS011;43863;52.256;21.048;2022-10-16T15:55:39;45.63;;;23.77;;
58069;SDS011;43863;52.256;21.048;2022-10-16T15:58:09;48.78;;;23.65;;
58069;SDS011;43863;52.256;21.048;2022-10-16T16:00:39;57.20;;;25.13;;
58069;SDS011;43863;52.256;21.048;2022-10-16T16:03:07;52.58;;;25.50;;
58069;SDS011;43863;52.256;21.048;2022-10-16T16:05:39;48.70;;;25.02;;
58069;SDS011;43863;52.256;21.048;2022-10-16T16:08:12;54.10;;;27.75;;
58069;SDS011;43863;52.256;21.048;2022-10-16T16:10:41;47.13;;;25.17;;
58069;SDS011;43863;52.256;21.048;2022-10-16T16:13:10;54.38;;;28.92;;
58069;SDS011;43863;52.256;21.048;2022-10-16T16:15:39;56.10;;;28.33;;
58069;SDS011;43863;52.256;21.048;2022-10-16T16:18:08;57.70;;;28.30;;
58069;SDS011;43863;52.256;21.048;2022-10-16T16:20:37;54.60;;;25.98;;
58069;SDS011;43863;52.256;21.048;2022-10-16T16:23:04;55.35;;;28.17;;
58069;SDS011;43863;52.256;21.048;2022-10-16T16:25:33;53.15;;;27.92;;
58069;SDS011;43863;52.256;21.048;2022-10-16T16:28:02;55.35;;;27.90;;
58069;SDS011;43863;52.256;21.048;2022-10-16T16:30:33;49.92;;;26.15;;
58069;SDS011;43863;52.256;21.048;2022-10-16T16:33:01;53.60;;;27.35;;
58069;SDS011;43863;52.256;21.048;2022-10-16T16:35:29;55.85;;;27.30;;
58069;SDS011;43863;52.256;21.048;2022-10-16T16:37:56;60.15;;;27.83;;
58069;SDS011;43863;52.256;21.048;2022-10-16T16:40:25;53.30;;;28.33;;
58069;SDS011;43863;52.256;21.048;2022-10-16T16:42:54;55.25;;;28.77;;
58069;SDS011;43863;52.256;21.048;2022-10-16T16:45:23;53.78;;;29.90;;
58069;SDS011;43863;52.256;21.048;2022-10-16T16:47:52;58.75;;;28.83;;
58069;SDS011;43863;52.256;21.048;2022-10-16T16:50:20;60.42;;;30.08;;
58069;SDS011;43863;52.256;21.048;2022-10-16T16:52:48;60.67;;;30.00;;
58069;SDS011;43863;52.256;21.048;2022-10-16T16:55:17;51.63;;;27.15;;
58069;SDS011;43863;52.256;21.048;2022-10-16T16:57:47;62.67;;;31.95;;